KBAD/BAD METAR and TAF weather

Enter ICAO airport designator
Station Type Date Time Source
KBAD METAR 2019/05/26 01:56 UTC NOAA

KBAD 260156Z AUTO 12004KT 10SM CLR 25/21 A3001 RMK AO2 SLP164 T02510214 $


Station Type Date Time Source
KBAD Decoded METAR 2019/05/26 01:56 UTC NOAA

Barksdale Air Force Base, LA, United States (KBAD) 32-30N 093-40W
May 25, 2019 - 09:56 PM EDT / 2019.05.26 0156 UTC
Wind: from the ESE (120 degrees) at 5 MPH (4 KT):0
Visibility: 10 mile(s):0
Sky conditions: clear
Temperature: 77.2 F (25.1 C)
Dew Point: 70.5 F (21.4 C)
Relative Humidity: 79%
Pressure (altimeter): 30.01 in. Hg (1016 hPa)
ob: KBAD 260156Z AUTO 12004KT 10SM CLR 25/21 A3001 RMK AO2 SLP164 T02510214
cycle: 2

Station Type Date Time Source
KBAD TAF 2019/05/23 19:34 UTC NOAA

TAF
AMD KBAD 231920Z 2319/2424 15012G18KT 9999 BKN040 QNH3000INS
BECMG 2400/2401 15008KT 9999 SKC QNH2999INS
BECMG 2415/2416 16012KT 9999 BKN035 QNH2999INS TX33/2322Z TN23/2412Z LAST NO
AMDS AFT 2400 NEXT 2610

Example: see airport list